Makoti, ND

6:23 AM CST on March 06, 2015 (GMT -0600)
Minot International | Change Station
CLOSE
Current Station
Airport
Location: Minot,
Elevation: 1716 ft
Nearby Weather Stations

Elev 1716 ft 48.26 °N, 101.28 °W | Updated 29 minutes ago

Clear
Clear
18 °F
Feels Like 5 °F
N
12
Wind Variable Wind from West

Today
High -- | Low -- °F
--% Chance of Precip.
Yesterday
High -- | Low -- °F
Precip. -- in
7:18 AM 6:39 PM
Waxing Gibbous, 99% visible
Pressure 30.12 in
Visibility 10.0 miles
Clouds Clear
Windchill 5 °F
Dew Point 11 °F
Humidity 74%
Rainfall 0.00 in
Snow Depth Not available.
UV 0 out of 12
Pollen .30 out of 12
Air Quality Not available.
Flu Activity Not available.
METAR KMOT 061154Z AUTO 28010KT 10SM CLR M08/M12 A3004 RMK AO2 SLP200 T10781117 11033 21078 53007

More Conditions Fewer Conditions

Pressure 30.12 in
Visibility 10.0 miles
Clouds Clear
Windchill 5 °F
Dew Point 11 °F
Humidity 74%
Rainfall 0.00 in
Snow Depth Not available.
UV 0 out of 12
Pollen .30 out of 12
Air Quality Not available.
Flu Activity Not available.
METAR KMOT 061154Z AUTO 28010KT 10SM CLR M08/M12 A3004 RMK AO2 SLP200 T10781117 11033 21078 53007

More Conditions Fewer Conditions

10-Day Weather Forecast

Almanac

Astronomy

Mar. 06, 2015 Rise Set
Actual Time
Civil Twilight
Nautical Twilight
Astronomical Twilight
Moon
Length of Visible Light
Length of Day
Tomorrow will be .
, % of the Moon is Illuminated

Today's Extremes

State Highs State Lows

Community

WunderPhotos

Upload Photos

1,803,242 photos uploaded!

WunderBlogs® & News

Nearby

Air Quality

  Air Quality AQ Index Pollutant
Not available.

Snow Depth

Station Depth Elevation

Earthquake Activity

City Distance Mag. Time & Date
Minimum magnitude displayed is 2.5.

Coastal Water Temperatures

Place Temperature

Nearby Weather Stations